Time;durP1;ratioP1;P1;durP2;ratioP2;P2;SDS_P1;SDS_P2;PMS_P1;PMS_P2;Temp;Humidity;BMP_temperature;BMP_pressure;BME280_temperature;BME280_humidity;BME280_pressure;Samples;Min_cycle;Max_cycle;Signal;HPM_P1;HPM_P2
2022/04/01 00:00:10;;;;;;;2.75;0.80;;;1.60;99.90;;;;;;5131048;27;20039;-81
2022/04/01 00:02:37;;;;;;;1.35;0.70;;;1.50;99.90;;;;;;5112123;27;20078;-81
2022/04/01 00:05:04;;;;;;;2.63;0.70;;;1.50;99.90;;;;;;5112784;27;20135;-81
2022/04/01 00:07:30;;;;;;;1.92;0.75;;;1.50;99.90;;;;;;5111220;27;20072;-81
2022/04/01 00:09:56;;;;;;;2.25;0.90;;;1.50;99.90;;;;;;5096022;27;20039;-81
2022/04/01 00:12:21;;;;;;;1.27;0.68;;;1.50;99.90;;;;;;5111380;27;20122;-81
2022/04/01 00:14:47;;;;;;;2.28;0.73;;;1.50;99.90;;;;;;5131052;27;20542;-82
2022/04/01 00:17:13;;;;;;;0.95;0.60;;;1.50;99.90;;;;;;5130534;27;20051;-81
2022/04/01 00:19:39;;;;;;;1.30;0.63;;;1.50;99.90;;;;;;5112034;27;20107;-82
2022/04/01 00:22:07;;;;;;;3.45;1.38;;;1.60;99.90;;;;;;5112172;27;20116;-81
2022/04/01 00:24:33;;;;;;;1.77;0.90;;;1.60;99.90;;;;;;5093575;27;20071;-81
2022/04/01 00:26:59;;;;;;;1.67;0.55;;;1.60;99.90;;;;;;5130822;27;20039;-81
2022/04/01 00:29:25;;;;;;;2.70;0.77;;;1.60;99.90;;;;;;5110866;27;20035;-82
2022/04/01 00:31:59;;;;;;;0.35;0.35;;;1.60;99.90;;;;;;5095394;27;20045;-81
2022/04/01 00:34:28;;;;;;;;;;;1.50;99.90;;;;;;5112050;27;20084;-81
2022/04/01 00:36:56;;;;;;;3.63;0.68;;;1.50;99.90;;;;;;5110259;28;19919;-82
2022/04/01 00:39:23;;;;;;;2.88;0.60;;;1.60;99.90;;;;;;5130189;27;20594;-82
2022/04/01 00:41:50;;;;;;;1.08;0.60;;;1.60;99.90;;;;;;5129205;27;20394;-81
2022/04/01 00:44:24;;;;;;;3.08;0.73;;;1.50;99.90;;;;;;5130427;27;20490;-82
2022/04/01 00:46:52;;;;;;;0.90;0.60;;;1.50;99.90;;;;;;5129300;27;20104;-81
2022/04/01 00:49:20;;;;;;;2.58;0.90;;;1.50;99.90;;;;;;5107637;28;20062;-82
2022/04/01 00:51:49;;;;;;;6.85;1.45;;;1.50;99.90;;;;;;5107692;28;20192;-81
2022/04/01 00:54:16;;;;;;;1.95;0.82;;;1.50;99.90;;;;;;5106794;28;20043;-81
2022/04/01 00:56:42;;;;;;;1.70;0.93;;;1.50;99.90;;;;;;5109657;28;20050;-81
2022/04/01 00:59:09;;;;;;;2.25;0.90;;;1.50;99.90;;;;;;5108335;28;20035;-80
2022/04/01 01:01:36;;;;;;;2.13;0.65;;;1.50;99.90;;;;;;5109454;28;20081;-81
2022/04/01 01:04:07;;;;;;;1.17;0.55;;;1.50;99.90;;;;;;5108375;28;20147;-81
2022/04/01 01:06:37;;;;;;;1.77;0.60;;;2.50;99.90;;;;;;5109117;28;20613;-81
2022/04/01 01:09:03;;;;;;;4.32;0.65;;;1.50;99.90;;;;;;5090720;28;20078;-82
2022/04/01 01:11:30;;;;;;;1.30;0.60;;;2.60;99.90;;;;;;5108100;28;20047;-82
2022/04/01 01:13:56;;;;;;;1.48;0.50;;;2.00;99.90;;;;;;5109128;28;20047;-82
2022/04/01 01:16:22;;;;;;;5.95;0.80;;;1.50;99.90;;;;;;5106534;28;20046;-81
2022/04/01 01:19:10;;;;;;;4.68;0.90;;;1.50;99.90;;;;;;5091107;28;20047;-81
2022/04/01 01:21:36;;;;;;;3.08;0.63;;;1.50;99.90;;;;;;5108756;28;20411;-81
2022/04/01 01:24:05;;;;;;;1.20;0.70;;;1.60;99.90;;;;;;5106765;28;20050;-81
2022/04/01 01:26:32;;;;;;;3.85;1.00;;;1.60;99.90;;;;;;5109239;28;20492;-81
2022/04/01 01:28:59;;;;;;;1.95;0.80;;;1.60;99.90;;;;;;5106423;28;20036;-81
2022/04/01 01:31:26;;;;;;;2.85;0.80;;;1.60;99.90;;;;;;5108680;28;20498;-82
2022/04/01 01:33:54;;;;;;;6.80;1.13;;;1.70;99.90;;;;;;5107559;28;20104;-81
2022/04/01 01:36:20;;;;;;;0.88;0.60;;;2.00;99.90;;;;;;5090395;28;20051;-82
2022/04/01 01:38:46;;;;;;;4.20;0.70;;;1.70;99.90;;;;;;5108661;28;20036;-82
2022/04/01 01:41:12;;;;;;;3.40;1.00;;;1.70;99.90;;;;;;5107852;28;20383;-82
2022/04/01 01:43:38;;;;;;;1.73;0.73;;;1.70;99.90;;;;;;5107129;28;20043;-81
2022/04/01 01:46:05;;;;;;;2.92;0.70;;;1.80;99.90;;;;;;5105692;28;20127;-82
2022/04/01 01:48:30;;;;;;;8.43;0.98;;;3.00;99.90;;;;;;5112259;27;20496;-82
2022/04/01 01:56:25;;;;;;;3.67;0.93;;;1.80;99.90;;;;;;5113499;27;20090;-83
2022/04/01 01:58:50;;;;;;;2.80;0.73;;;1.80;99.90;;;;;;5127724;27;20070;-81
2022/04/01 02:01:16;;;;;;;4.00;0.80;;;1.80;99.90;;;;;;5093200;27;20046;-82
2022/04/01 02:03:42;;;;;;;0.85;0.60;;;1.80;99.90;;;;;;5127852;27;20043;-82
2022/04/01 02:06:08;;;;;;;3.33;0.98;;;1.80;99.90;;;;;;5110769;27;20042;-82
2022/04/01 02:08:34;;;;;;;3.38;0.70;;;1.80;99.90;;;;;;5092563;27;20039;-82
2022/04/01 02:10:59;;;;;;;4.43;1.08;;;1.90;99.90;;;;;;5109637;27;20118;-82
2022/04/01 02:13:29;;;;;;;3.50;0.85;;;1.80;99.90;;;;;;5128681;27;20039;-82
2022/04/01 02:15:55;;;;;;;6.53;0.85;;;1.90;99.90;;;;;;5109291;27;20050;-82
2022/04/01 02:18:21;;;;;;;3.97;0.95;;;2.20;99.90;;;;;;5110530;27;20133;-82
2022/04/01 02:20:48;;;;;;;5.60;1.00;;;1.90;99.90;;;;;;5127609;27;20046;-81
2022/04/01 02:23:14;;;;;;;3.38;0.65;;;1.90;99.90;;;;;;5109980;28;20498;-81
2022/04/01 02:25:42;;;;;;;1.13;0.40;;;1.90;99.90;;;;;;5127942;27;20085;-81
2022/04/01 02:28:12;;;;;;;3.90;0.52;;;1.80;99.90;;;;;;5127787;28;20040;-81
2022/04/01 02:30:38;;;;;;;1.13;0.60;;;1.90;99.90;;;;;;5109744;28;20074;-81
2022/04/01 02:33:06;;;;;;;2.38;0.70;;;1.80;99.90;;;;;;5108809;28;20043;-81
2022/04/01 02:35:32;;;;;;;3.35;0.90;;;1.90;99.90;;;;;;5128396;28;20126;-81
2022/04/01 02:37:58;;;;;;;5.18;0.90;;;1.80;99.90;;;;;;5091621;28;20039;-81
2022/04/01 02:40:24;;;;;;;2.28;0.70;;;1.80;99.90;;;;;;5109821;28;20043;-81
2022/04/01 02:42:53;;;;;;;1.10;0.50;;;1.80;99.90;;;;;;5109774;28;20039;-81
2022/04/01 02:45:21;;;;;;;8.60;0.77;;;1.80;99.90;;;;;;5091805;28;20075;-82
2022/04/01 02:47:47;;;;;;;5.10;0.90;;;1.80;99.90;;;;;;5109801;28;20047;-82
2022/04/01 02:50:13;;;;;;;2.72;0.60;;;1.80;99.90;;;;;;5108488;28;20063;-82
2022/04/01 02:52:39;;;;;;;4.03;0.90;;;1.80;99.90;;;;;;5109967;28;20406;-83
2022/04/01 02:55:05;;;;;;;6.82;0.82;;;1.80;99.90;;;;;;5091699;28;20041;-82
2022/04/01 02:57:33;;;;;;;0.98;0.60;;;1.80;99.90;;;;;;5092848;28;20047;-82
2022/04/01 02:59:59;;;;;;;0.85;0.47;;;1.80;99.90;;;;;;5093376;27;20069;-82
2022/04/01 03:02:25;;;;;;;2.05;0.95;;;1.70;99.90;;;;;;5131057;27;20438;-82
2022/04/01 03:04:51;;;;;;;4.28;0.50;;;1.80;99.90;;;;;;5096368;27;20051;-83
2022/04/01 03:07:16;;;;;;;2.05;0.90;;;1.80;99.90;;;;;;5112759;27;20054;-83
2022/04/01 03:09:42;;;;;;;1.23;0.55;;;1.70;99.90;;;;;;5132267;27;20090;-83
2022/04/01 03:12:08;;;;;;;2.95;0.57;;;1.70;99.90;;;;;;5095482;27;20043;-83
2022/04/01 03:14:34;;;;;;;8.93;1.13;;;1.80;99.90;;;;;;5132368;27;20397;-83
2022/04/01 03:17:00;;;;;;;1.90;0.75;;;1.80;99.90;;;;;;5131790;27;20046;-83
2022/04/01 03:19:26;;;;;;;2.90;0.70;;;1.80;99.90;;;;;;5131270;27;20482;-83
2022/04/01 03:21:52;;;;;;;2.17;0.70;;;1.80;99.90;;;;;;5096387;27;20039;-83
2022/04/01 03:24:18;;;;;;;4.68;1.05;;;1.80;99.90;;;;;;5078451;27;20096;-83
2022/04/01 03:26:43;;;;;;;3.47;0.85;;;1.80;99.90;;;;;;5132163;27;20039;-82
2022/04/01 03:29:12;;;;;;;9.70;0.93;;;1.80;99.90;;;;;;5078070;27;20054;-82
2022/04/01 03:31:39;;;;;;;4.03;0.77;;;1.80;99.90;;;;;;5113339;27;20058;-83
2022/04/01 03:34:05;;;;;;;2.47;1.33;;;1.80;99.90;;;;;;5131102;27;20042;-83
2022/04/01 03:36:31;;;;;;;5.70;0.75;;;1.80;99.90;;;;;;5130933;27;20238;-82
2022/04/01 03:38:57;;;;;;;3.13;0.60;;;1.80;99.90;;;;;;5131821;27;20075;-82
2022/04/01 03:41:23;;;;;;;3.45;0.70;;;1.80;99.90;;;;;;5130187;27;20031;-82
2022/04/01 03:43:52;;;;;;;5.30;0.70;;;1.80;99.90;;;;;;5113002;27;20082;-82
2022/04/01 03:46:20;;;;;;;1.98;0.55;;;1.80;99.90;;;;;;5130197;27;20039;-82
2022/04/01 03:48:53;;;;;;;3.55;1.38;;;1.80;99.90;;;;;;5131367;27;20112;-83
2022/04/01 03:51:22;;;;;;;1.55;0.50;;;1.80;99.90;;;;;;5112579;27;20108;-83
2022/04/01 03:53:58;;;;;;;4.20;0.77;;;1.80;99.90;;;;;;5111861;27;20410;-83
2022/04/01 03:56:36;;;;;;;6.72;0.73;;;1.80;99.90;;;;;;5112517;27;20046;-83
2022/04/01 03:59:09;;;;;;;2.42;0.70;;;1.80;99.90;;;;;;5111081;27;20083;-83
2022/04/01 04:01:36;;;;;;;3.97;0.77;;;1.80;99.90;;;;;;5112192;27;20051;-82
2022/04/01 04:04:03;;;;;;;1.42;0.60;;;1.90;99.90;;;;;;5111767;27;20508;-82
2022/04/01 04:06:32;;;;;;;3.45;0.90;;;1.90;99.90;;;;;;5110861;27;20050;-82
2022/04/01 04:09:00;;;;;;;0.45;0.32;;;1.90;99.90;;;;;;5131006;27;20046;-83
2022/04/01 04:11:31;;;;;;;3.38;0.43;;;1.90;99.90;;;;;;5129421;27;20394;-82
2022/04/01 04:13:58;;;;;;;3.55;0.40;;;1.90;99.90;;;;;;5112500;27;20047;-81
2022/04/01 04:16:29;;;;;;;4.43;0.80;;;1.90;99.90;;;;;;5111527;27;20051;-82
2022/04/01 04:19:08;;;;;;;6.22;0.70;;;1.90;99.90;;;;;;5111751;27;20086;-83
2022/04/01 04:21:41;;;;;;;4.10;0.75;;;1.90;99.90;;;;;;5112419;27;20122;-83
2022/04/01 04:24:18;;;;;;;2.33;0.55;;;1.90;99.90;;;;;;5129869;27;20043;-83
2022/04/01 04:26:49;;;;;;;0.57;0.50;;;2.00;99.90;;;;;;5112287;27;20042;-83
2022/04/01 04:29:16;;;;;;;3.80;0.60;;;2.00;99.90;;;;;;5110871;27;20055;-83
2022/04/01 04:31:55;;;;;;;2.38;0.60;;;2.00;99.90;;;;;;5130398;27;20098;-83
2022/04/01 04:34:26;;;;;;;5.32;0.60;;;2.00;99.90;;;;;;5112224;27;20118;-82
2022/04/01 04:36:52;;;;;;;1.10;0.60;;;2.00;99.90;;;;;;5109803;27;20510;-81
2022/04/01 04:39:36;;;;;;;6.47;1.00;;;2.00;99.90;;;;;;5094940;27;20043;-81
2022/04/01 04:42:04;;;;;;;6.00;0.95;;;2.00;99.90;;;;;;5129578;27;20042;-83
2022/04/01 04:44:30;;;;;;;3.38;0.70;;;2.00;99.90;;;;;;5129691;27;20046;-83
2022/04/01 04:47:01;;;;;;;11.40;1.20;;;2.00;99.90;;;;;;5129670;27;20038;-83
2022/04/01 04:49:27;;;;;;;2.97;0.88;;;3.40;99.90;;;;;;5128443;27;20051;-84
2022/04/01 04:51:54;;;;;;;4.05;0.73;;;2.00;99.90;;;;;;5130070;27;20051;-82
2022/04/01 04:54:21;;;;;;;2.72;0.77;;;2.00;99.90;;;;;;5110174;27;20095;-82
2022/04/01 04:56:49;;;;;;;1.35;0.60;;;2.00;99.90;;;;;;5111728;27;20118;-80
2022/04/01 04:59:19;;;;;;;2.25;0.60;;;2.00;99.90;;;;;;5110372;27;20074;-81
2022/04/01 05:02:04;;;;;;;5.35;0.98;;;2.00;99.90;;;;;;5110836;27;20406;-80
2022/04/01 05:04:39;;;;;;;2.03;0.50;;;2.00;99.90;;;;;;5111059;27;20124;-82
2022/04/01 05:07:26;;;;;;;2.95;0.52;;;2.00;99.90;;;;;;5109696;27;20044;-81
2022/04/01 05:10:02;;;;;;;1.60;0.60;;;2.00;99.90;;;;;;5093974;27;20047;-85
2022/04/01 05:12:58;;;;;;;3.28;0.90;;;2.70;99.90;;;;;;5077473;27;20051;-81
2022/04/01 05:15:34;;;;;;;1.08;0.45;;;2.00;99.90;;;;;;5128194;27;20043;-82
2022/04/01 05:18:23;;;;;;;3.50;0.70;;;2.00;99.90;;;;;;5094321;27;20136;-82
2022/04/01 05:20:58;;;;;;;0.90;0.45;;;1.10;99.90;;;;;;5110311;27;20047;-83
2022/04/01 05:23:44;;;;;;;3.00;0.65;;;2.00;99.90;;;;;;5128048;27;20047;-82
2022/04/01 05:26:12;;;;;;;3.72;0.65;;;2.00;99.90;;;;;;5110516;27;20039;-82
2022/04/01 05:28:48;;;;;;;2.65;0.50;;;2.00;99.90;;;;;;5092261;27;20043;-82
2022/04/01 05:31:25;;;;;;;2.92;0.70;;;2.20;99.90;;;;;;5128765;27;20043;-82
2022/04/01 05:34:04;;;;;;;4.10;1.02;;;2.10;99.90;;;;;;5110081;27;20035;-82
2022/04/01 05:36:30;;;;;;;2.05;0.75;;;2.10;99.90;;;;;;5108626;27;20054;-81
2022/04/01 05:38:57;;;;;;;5.90;0.52;;;2.10;99.90;;;;;;5128405;27;20126;-81
2022/04/01 05:41:25;;;;;;;6.80;1.10;;;2.10;99.90;;;;;;5127550;27;20071;-79
2022/04/01 05:43:51;;;;;;;8.20;1.08;;;2.10;99.90;;;;;;5128939;27;20047;-81
2022/04/01 05:46:22;;;;;;;1.80;0.63;;;2.10;99.90;;;;;;5127734;27;20039;-80
2022/04/01 05:48:49;;;;;;;3.60;1.05;;;2.90;99.90;;;;;;5127365;27;20051;-81
2022/04/01 05:51:16;;;;;;;6.53;1.15;;;2.10;99.90;;;;;;5128847;27;20529;-80
2022/04/01 05:53:45;;;;;;;1.05;0.52;;;2.10;99.90;;;;;;5092192;27;20053;-81
2022/04/01 05:56:12;;;;;;;3.05;1.02;;;3.40;99.90;;;;;;5128588;27;20061;-81
2022/04/01 05:58:39;;;;;;;2.20;0.70;;;3.70;99.90;;;;;;5108360;27;20078;-81
2022/04/01 06:01:16;;;;;;;4.05;1.02;;;2.20;99.90;;;;;;5128903;27;20039;-82
2022/04/01 06:04:19;;;;;;;4.20;1.00;;;2.20;99.90;;;;;;5092853;27;20103;-82
2022/04/01 06:06:48;;;;;;;4.72;0.63;;;2.20;99.90;;;;;;5108861;27;20054;-82
2022/04/01 06:09:39;;;;;;;3.10;0.70;;;2.20;99.90;;;;;;5128687;27;20611;-82
2022/04/01 06:12:45;;;;;;;2.55;0.60;;;2.20;99.90;;;;;;5127683;27;20490;-82
2022/04/01 06:15:26;;;;;;;4.25;1.85;;;2.20;99.90;;;;;;5127453;27;20075;-82
2022/04/01 06:18:07;;;;;;;2.55;0.75;;;2.20;99.90;;;;;;5128778;27;20451;-82
2022/04/01 06:20:37;;;;;;;1.58;0.70;;;2.20;99.90;;;;;;5127936;27;20039;-82
2022/04/01 06:23:35;;;;;;;4.10;1.13;;;2.20;99.90;;;;;;5127941;27;20054;-82
2022/04/01 06:26:01;;;;;;;1.73;0.73;;;2.30;99.90;;;;;;5086394;27;20104;-82
2022/04/01 06:28:39;;;;;;;3.47;0.90;;;2.30;99.90;;;;;;5091874;28;20031;-82
2022/04/01 06:31:06;;;;;;;3.17;0.80;;;2.30;99.90;;;;;;5128829;28;20374;-82
2022/04/01 06:34:03;;;;;;;3.88;1.80;;;2.40;99.90;;;;;;5092030;28;20039;-82
2022/04/01 06:36:40;;;;;;;3.08;0.80;;;2.40;99.90;;;;;;5111439;27;20120;-82
2022/04/01 06:39:08;;;;;;;1.50;0.50;;;3.30;99.90;;;;;;5114645;27;20096;-82
2022/04/01 06:41:47;;;;;;;2.72;0.90;;;2.50;99.90;;;;;;5112732;27;20047;-82
2022/04/01 06:44:12;;;;;;;5.07;0.80;;;3.00;99.90;;;;;;5113395;27;20044;-83
2022/04/01 06:46:38;;;;;;;0.57;0.50;;;2.50;99.90;;;;;;5079743;27;20375;-81
2022/04/01 06:49:08;;;;;;;2.13;0.80;;;2.60;99.90;;;;;;5112422;27;20051;-83
2022/04/01 06:51:38;;;;;;;4.50;1.02;;;2.60;99.90;;;;;;5132685;27;20084;-82
2022/04/01 06:54:05;;;;;;;1.67;0.50;;;2.60;99.90;;;;;;5113016;27;20511;-83
2022/04/01 06:56:31;;;;;;;3.20;0.68;;;2.70;99.90;;;;;;5097055;27;20039;-82
2022/04/01 06:58:56;;;;;;;3.50;0.77;;;2.70;99.90;;;;;;5096411;27;20035;-82
2022/04/01 07:01:22;;;;;;;1.58;0.60;;;2.70;99.90;;;;;;5096628;27;20243;-83
2022/04/01 07:03:48;;;;;;;1.90;0.63;;;2.70;99.90;;;;;;5079597;27;20435;-83
2022/04/01 07:06:14;;;;;;;2.58;0.80;;;2.80;99.90;;;;;;5112094;27;20043;-84
2022/04/01 07:08:40;;;;;;;5.82;0.60;;;2.80;99.90;;;;;;5096523;27;20043;-83
2022/04/01 07:11:06;;;;;;;2.65;0.65;;;2.80;99.90;;;;;;5095239;27;20039;-83
2022/04/01 07:13:32;;;;;;;1.35;0.68;;;2.80;99.90;;;;;;5096734;27;20452;-83
2022/04/01 07:15:58;;;;;;;4.80;0.73;;;2.80;99.90;;;;;;5095500;27;20078;-83
2022/04/01 07:18:24;;;;;;;0.95;0.50;;;2.80;99.90;;;;;;5079970;27;20544;-84
2022/04/01 07:20:52;;;;;;;1.85;0.75;;;2.80;99.90;;;;;;5096890;27;20031;-84
2022/04/01 07:23:18;;;;;;;0.52;0.30;;;2.80;99.90;;;;;;5061936;27;20046;-84
2022/04/01 07:25:44;;;;;;;5.63;0.68;;;2.90;99.90;;;;;;5096078;27;20039;-84
2022/04/01 07:28:09;;;;;;;0.80;0.40;;;2.90;99.90;;;;;;5078068;27;20039;-83
2022/04/01 07:30:36;;;;;;;2.35;0.40;;;2.90;99.90;;;;;;5131724;27;20076;-84
2022/04/01 07:33:03;;;;;;;2.38;0.47;;;2.90;99.90;;;;;;5112488;27;20386;-84
2022/04/01 07:35:30;;;;;;;5.10;0.70;;;2.90;99.90;;;;;;5131349;27;20047;-84
2022/04/01 07:37:57;;;;;;;1.95;0.52;;;2.90;99.90;;;;;;5112763;27;20039;-83
2022/04/01 07:40:24;;;;;;;2.50;0.70;;;2.90;99.90;;;;;;5111809;27;20043;-83
2022/04/01 07:42:51;;;;;;;1.90;0.52;;;2.90;99.90;;;;;;5113125;27;20088;-82
2022/04/01 07:45:18;;;;;;;1.58;0.63;;;2.90;99.90;;;;;;5130286;27;20058;-82
2022/04/01 07:47:48;;;;;;;2.05;0.65;;;2.90;99.90;;;;;;5131301;27;20452;-83
2022/04/01 07:50:16;;;;;;;1.65;0.75;;;3.00;99.90;;;;;;5095154;27;20047;-82
2022/04/01 07:52:43;;;;;;;5.22;0.77;;;2.90;99.90;;;;;;5113772;27;20047;-82
2022/04/01 07:55:11;;;;;;;2.55;0.60;;;2.90;99.90;;;;;;5112848;27;20172;-82
2022/04/01 07:57:37;;;;;;;1.25;0.65;;;2.90;99.90;;;;;;5112062;27;20046;-83
2022/04/01 08:00:05;;;;;;;4.65;0.70;;;2.90;99.90;;;;;;5114883;27;20126;-83
2022/04/01 08:02:31;;;;;;;3.33;0.75;;;2.90;99.90;;;;;;5079814;27;20627;-82
2022/04/01 08:04:57;;;;;;;6.10;0.85;;;2.90;99.90;;;;;;5115039;27;20130;-82
2022/04/01 08:07:22;;;;;;;3.08;0.70;;;2.90;99.90;;;;;;5096986;27;20043;-82
2022/04/01 08:09:49;;;;;;;1.88;0.77;;;3.30;99.90;;;;;;5114758;27;20415;-83
2022/04/01 08:12:15;;;;;;;3.55;0.95;;;2.90;99.90;;;;;;5133478;27;20039;-83
2022/04/01 08:14:42;;;;;;;2.88;0.60;;;2.90;99.90;;;;;;5132492;27;20063;-83
2022/04/01 08:17:11;;;;;;;4.13;0.77;;;3.80;99.90;;;;;;5114800;27;20031;-81
2022/04/01 08:19:38;;;;;;;5.18;0.65;;;2.90;99.90;;;;;;5132367;27;20035;-82
2022/04/01 08:22:05;;;;;;;1.50;0.68;;;3.00;99.90;;;;;;5097594;27;20063;-82
2022/04/01 08:24:30;;;;;;;6.95;1.05;;;3.10;99.90;;;;;;5132207;27;20046;-83
2022/04/01 08:26:59;;;;;;;3.75;0.93;;;3.00;99.90;;;;;;5113952;27;20039;-83
2022/04/01 08:29:26;;;;;;;3.28;1.60;;;3.10;99.90;;;;;;5114318;27;20062;-81
2022/04/01 08:31:52;;;;;;;2.35;0.82;;;3.10;99.90;;;;;;5131342;27;20047;-83
2022/04/01 08:34:18;;;;;;;1.52;0.60;;;3.20;99.90;;;;;;5133130;27;20416;-82
2022/04/01 08:36:43;;;;;;;1.42;0.60;;;3.20;99.90;;;;;;5113259;27;20054;-82
2022/04/01 08:39:10;;;;;;;3.95;0.60;;;3.20;99.90;;;;;;5097104;27;20042;-82
2022/04/01 08:41:35;;;;;;;2.30;0.75;;;3.30;99.90;;;;;;5131648;27;20039;-82
2022/04/01 08:44:02;;;;;;;2.50;0.60;;;3.30;99.90;;;;;;5132316;27;20107;-82
2022/04/01 08:46:28;;;;;;;2.60;0.65;;;3.50;99.90;;;;;;5096980;27;20039;-82
2022/04/01 08:48:55;;;;;;;6.68;1.00;;;3.50;99.90;;;;;;5131830;27;20108;-83
2022/04/01 08:51:21;;;;;;;4.13;0.93;;;3.60;99.90;;;;;;5080588;27;20039;-83
2022/04/01 08:53:47;;;;;;;1.98;0.70;;;3.60;99.90;;;;;;5112898;27;20046;-82
2022/04/01 08:56:17;;;;;;;4.30;0.77;;;3.60;99.90;;;;;;5113896;27;20520;-83
2022/04/01 08:58:43;;;;;;;1.58;0.52;;;3.60;99.90;;;;;;5095030;27;20131;-84
2022/04/01 09:01:09;;;;;;;4.85;0.85;;;3.60;99.90;;;;;;5113284;27;20079;-82
2022/04/01 09:03:35;;;;;;;1.95;0.60;;;3.70;99.90;;;;;;5096527;27;20043;-82
2022/04/01 09:06:04;;;;;;;4.15;0.88;;;3.70;99.90;;;;;;5112799;27;20054;-83
2022/04/01 09:08:38;;;;;;;5.28;0.90;;;3.70;99.90;;;;;;5114155;27;20047;-83
2022/04/01 09:11:09;;;;;;;1.98;0.60;;;3.80;99.90;;;;;;5130773;27;20104;-84
2022/04/01 09:13:50;;;;;;;3.53;0.60;;;3.90;99.90;;;;;;5113524;27;20047;-83
2022/04/01 09:16:32;;;;;;;2.42;0.57;;;3.90;99.90;;;;;;5131555;27;20051;-83
2022/04/01 09:19:03;;;;;;;2.60;0.60;;;3.90;99.90;;;;;;5094775;27;20055;-84
2022/04/01 09:21:34;;;;;;;9.85;0.80;;;3.90;99.90;;;;;;5132287;27;20099;-83
2022/04/01 09:24:01;;;;;;;1.45;0.73;;;3.90;99.90;;;;;;5094294;27;20129;-83
2022/04/01 09:26:37;;;;;;;4.95;0.60;;;3.90;99.90;;;;;;5112999;27;20078;-86
2022/04/01 09:29:05;;;;;;;6.97;0.50;;;4.00;99.90;;;;;;5111696;27;20058;-82
2022/04/01 09:31:36;;;;;;;5.43;0.70;;;4.00;99.90;;;;;;5129680;27;20441;-83
2022/04/01 09:34:09;;;;;;;1.98;0.60;;;4.00;99.90;;;;;;5095721;27;20043;-83
2022/04/01 09:36:38;;;;;;;;;;;4.10;99.90;;;;;;5112123;27;20383;-83
2022/04/01 09:39:07;;;;;;;1.85;0.60;;;4.10;99.90;;;;;;5132135;27;19919;-84
2022/04/01 09:41:39;;;;;;;1.27;0.52;;;4.20;99.90;;;;;;5131215;27;20047;-83
2022/04/01 09:44:11;;;;;;;4.25;0.75;;;4.30;99.90;;;;;;5130873;27;20054;-84
2022/04/01 09:46:43;;;;;;;6.87;0.90;;;4.40;99.90;;;;;;5131946;27;20100;-84
2022/04/01 09:49:10;;;;;;;3.33;0.73;;;4.40;99.90;;;;;;5074709;28;20051;-83
2022/04/01 09:51:42;;;;;;;1.67;0.60;;;4.50;99.90;;;;;;5110810;28;20077;-84
2022/04/01 09:54:08;;;;;;;1.63;0.63;;;4.50;99.90;;;;;;5109174;28;20039;-83
2022/04/01 09:56:40;;;;;;;7.07;0.73;;;4.60;99.90;;;;;;5109121;28;20079;-83
2022/04/01 09:59:06;;;;;;;3.70;0.88;;;4.70;99.90;;;;;;5110445;28;20067;-84
2022/04/01 10:01:37;;;;;;;15.93;2.05;;;5.80;99.90;;;;;;5110153;28;20510;-85
2022/04/01 10:04:04;;;;;;;2.45;1.05;;;4.80;99.90;;;;;;5091180;28;20042;-82
2022/04/01 10:06:32;;;;;;;3.03;0.88;;;4.90;99.90;;;;;;5106946;28;20036;-84
2022/04/01 10:09:02;;;;;;;4.13;0.77;;;4.90;99.90;;;;;;5108171;28;20118;-82
2022/04/01 10:11:29;;;;;;;2.53;0.93;;;5.10;99.90;;;;;;5107047;28;20065;-81
2022/04/01 10:14:07;;;;;;;5.32;0.70;;;5.20;99.90;;;;;;5107342;28;20051;-83
2022/04/01 10:16:35;;;;;;;11.95;1.60;;;5.30;99.90;;;;;;5107479;28;20031;-83
2022/04/01 10:19:06;;;;;;;9.18;1.10;;;5.40;99.90;;;;;;5105163;28;20043;-82
2022/04/01 10:21:34;;;;;;;7.70;0.90;;;6.50;99.90;;;;;;5108172;28;20595;-83
2022/04/01 10:24:09;;;;;;;3.30;0.57;;;5.60;99.90;;;;;;5106086;28;20494;-82
2022/04/01 10:26:39;;;;;;;0.80;0.30;;;5.70;99.50;;;;;;5107263;28;20032;-83
2022/04/01 10:29:05;;;;;;;12.32;0.70;;;7.00;99.00;;;;;;5106828;28;20043;-81
2022/04/01 10:31:31;;;;;;;0.77;0.35;;;5.60;99.90;;;;;;5105376;28;20039;-81
2022/04/01 10:34:44;;;;;;;3.08;0.63;;;5.70;99.90;;;;;;5106829;28;20051;-82
2022/04/01 10:37:14;;;;;;;1.35;0.45;;;5.90;92.60;;;;;;5022709;28;20058;-82
2022/04/01 10:39:50;;;;;;;1.95;0.68;;;5.90;97.30;;;;;;5023164;28;20042;-82
2022/04/01 10:42:16;;;;;;;1.83;0.70;;;5.80;93.60;;;;;;5076144;28;20513;-82
2022/04/01 10:44:58;;;;;;;2.38;0.85;;;5.80;99.90;;;;;;5105150;28;20055;-82
2022/04/01 10:53:45;;;;;;;6.63;0.65;;;6.00;99.90;;;;;;5105484;28;20062;-80
2022/04/01 10:56:26;;;;;;;3.90;0.45;;;5.90;91.20;;;;;;5107054;28;20039;-81
2022/04/01 10:59:18;;;;;;;2.15;0.75;;;6.80;95.00;;;;;;5105240;28;20432;-81
2022/04/01 11:01:53;;;;;;;0.95;0.45;;;5.70;91.20;;;;;;5105835;28;20379;-81
2022/04/01 11:04:18;;;;;;;3.58;0.60;;;6.10;96.50;;;;;;5106951;28;20044;-81
2022/04/01 11:07:01;;;;;;;5.53;0.75;;;6.00;98.60;;;;;;5105833;28;20039;-81
2022/04/01 11:09:39;;;;;;;2.70;0.65;;;5.90;97.30;;;;;;5107040;28;20500;-81
2022/04/01 11:12:14;;;;;;;2.00;0.70;;;6.00;99.90;;;;;;5105542;28;20047;-81
2022/04/01 11:14:59;;;;;;;2.25;0.73;;;7.00;99.90;;;;;;5105491;28;20082;-82
2022/04/01 11:17:51;;;;;;;2.72;0.40;;;6.20;99.90;;;;;;5107092;28;20051;-81
2022/04/01 11:20:21;;;;;;;1.05;0.35;;;6.30;98.10;;;;;;5105208;28;20125;-81
2022/04/01 11:23:01;;;;;;;2.47;0.30;;;7.30;96.10;;;;;;5108791;28;20118;-81
2022/04/01 11:25:32;;;;;;;0.43;0.20;;;6.50;91.80;;;;;;5110968;28;20079;-81
2022/04/01 11:28:11;;;;;;;0.90;0.50;;;6.10;93.70;;;;;;5109516;28;20126;-81
2022/04/01 11:30:53;;;;;;;4.28;0.73;;;6.70;84.00;;;;;;5092038;28;20050;-81
2022/04/01 11:33:21;;;;;;;2.43;0.63;;;7.40;82.70;;;;;;5110846;28;20225;-82
2022/04/01 11:35:50;;;;;;;2.55;0.57;;;7.20;91.40;;;;;;5109344;28;20366;-81
2022/04/01 11:38:25;;;;;;;4.60;0.60;;;6.40;87.10;;;;;;5110818;28;20135;-80
2022/04/01 11:40:56;;;;;;;4.00;0.70;;;6.40;83.60;;;;;;5108131;28;20407;-80
2022/04/01 11:43:24;;;;;;;3.55;0.30;;;7.90;90.30;;;;;;5092258;28;20559;-80
2022/04/01 11:45:57;;;;;;;1.95;0.60;;;6.80;90.10;;;;;;5109877;28;20075;-81
2022/04/01 11:48:41;;;;;;;3.47;0.80;;;6.90;90.20;;;;;;5091986;28;20081;-80
2022/04/01 11:51:19;;;;;;;3.75;0.77;;;7.00;83.10;;;;;;5112355;27;20062;-81
2022/04/01 11:53:49;;;;;;;0.90;0.60;;;7.00;87.70;;;;;;5129493;27;20039;-80
2022/04/01 11:56:16;;;;;;;1.73;0.75;;;6.90;89.30;;;;;;5130641;27;20096;-81
2022/04/01 11:58:48;;;;;;;16.88;1.40;;;7.30;88.30;;;;;;5130397;27;20043;-81
2022/04/01 12:01:15;;;;;;;4.40;0.85;;;7.60;83.10;;;;;;5110826;27;20051;-80
2022/04/01 12:03:41;;;;;;;5.00;0.88;;;6.60;88.10;;;;;;5111993;27;20490;-81
2022/04/01 12:08:52;;;;;;;2.20;0.43;;;6.30;91.00;;;;;;5115344;27;20318;-81
2022/04/01 12:11:18;;;;;;;1.67;0.50;;;7.00;88.20;;;;;;5111011;27;20045;-82
2022/04/01 12:13:55;;;;;;;9.20;1.02;;;6.20;91.30;;;;;;5111075;27;20118;-80
2022/04/01 12:16:21;;;;;;;3.67;0.95;;;7.50;91.30;;;;;;5112323;27;20055;-81
2022/04/01 12:18:49;;;;;;;5.95;0.90;;;6.20;92.70;;;;;;5111026;27;20039;-82
2022/04/01 12:21:21;;;;;;;6.80;0.80;;;6.10;93.40;;;;;;5131198;27;20401;-82
2022/04/01 12:23:48;;;;;;;1.20;0.40;;;6.00;93.30;;;;;;5111459;27;20043;-82
2022/04/01 12:26:16;;;;;;;1.30;0.50;;;6.80;94.30;;;;;;5111679;27;20039;-81
2022/04/01 12:28:44;;;;;;;1.95;0.70;;;5.80;93.10;;;;;;5130114;27;20047;-81
2022/04/01 12:31:24;;;;;;;3.10;0.80;;;5.70;94.60;;;;;;5110941;27;20126;-82
2022/04/01 12:33:57;;;;;;;2.17;0.60;;;5.60;96.40;;;;;;5129761;27;20062;-81
2022/04/01 12:36:31;;;;;;;2.63;0.60;;;5.60;95.70;;;;;;5129126;27;20050;-82
2022/04/01 12:39:04;;;;;;;4.20;0.80;;;5.80;96.30;;;;;;5130180;27;20035;-81
2022/04/01 12:41:30;;;;;;;3.20;0.65;;;5.90;96.20;;;;;;5130509;27;20452;-81
2022/04/01 12:43:56;;;;;;;9.00;1.17;;;6.10;97.00;;;;;;5110817;27;20031;-81
2022/04/01 12:46:34;;;;;;;8.35;0.90;;;6.10;96.60;;;;;;5130373;27;20043;-82
2022/04/01 12:49:13;;;;;;;1.27;0.57;;;6.10;95.20;;;;;;5110409;27;20061;-82
2022/04/01 12:51:47;;;;;;;1.20;0.70;;;6.10;94.60;;;;;;5129961;27;20047;-82
2022/04/01 12:54:31;;;;;;;3.88;0.52;;;6.10;96.40;;;;;;5129729;27;20402;-80
2022/04/01 12:57:00;;;;;;;3.47;0.70;;;7.00;94.70;;;;;;5129607;27;20039;-81
2022/04/01 12:59:26;;;;;;;3.35;0.90;;;6.10;93.70;;;;;;5131615;27;20046;-83
2022/04/01 13:02:00;;;;;;;3.10;0.63;;;6.10;93.90;;;;;;5129694;27;20095;-81
2022/04/01 13:04:27;;;;;;;2.90;0.80;;;6.20;94.00;;;;;;5112919;27;20127;-80
2022/04/01 13:07:16;;;;;;;2.00;0.50;;;6.30;94.90;;;;;;5112118;27;20088;-82
2022/04/01 13:10:00;;;;;;;3.15;0.47;;;6.30;82.30;;;;;;5111853;27;20043;-83
2022/04/01 13:12:34;;;;;;;0.70;0.45;;;6.20;90.40;;;;;;5079616;27;20051;-83
2022/04/01 13:15:12;;;;;;;1.63;0.40;;;6.10;79.70;;;;;;5111444;27;20044;-83
2022/04/01 13:17:43;;;;;;;2.33;0.82;;;6.40;84.00;;;;;;5112279;27;20395;-83
2022/04/01 13:20:11;;;;;;;5.20;0.47;;;6.00;87.80;;;;;;5130677;27;20166;-83
2022/04/01 13:22:40;;;;;;;3.67;0.70;;;7.50;91.90;;;;;;5129046;27;20610;-79
2022/04/01 13:25:08;;;;;;;2.92;0.73;;;6.20;91.30;;;;;;5094712;27;20513;-81
2022/04/01 13:27:34;;;;;;;2.90;0.60;;;6.10;89.70;;;;;;5129434;27;20561;-77